Jacksonville, Florida
Current Conditions -  °F | °C
As of 11:56 AM on Thursday 18 Dec 2014 (Local Time) from KJAX Reporting Station
Overcast Overcast  
Wind Chill: 54°   Ceiling: 18000
Heat Index: 54°   Visibility: 10mi
Dew Point: 45°   Wind: 5mph
Humidity: 72%   Direction: 290°WNW
Pressure: 30.17"   Gusts: NA
Location:  30.32°N, 81.66°W
Report Text: KJAX 181656Z 29004KT 10SM OVC180 12/07 A3017 RMK AO2 SLP218 T01220072
Loading
Personal Weather Stations






























Interactive Weather Map New forecast layout! Learn more

10-Day Weather Forecast

Advertisements
Track Severe Weather on mobile